sensor_id;sensor_type;location;lat;lon;timestamp;pressure;altitude;pressure_sealevel;temperature;humidity
31011;BME280;26395;53.412;19.598;2023-02-14T00:09:51;101977.87;;;5.03;91.93
31011;BME280;26395;53.412;19.598;2023-02-14T00:24:54;101984.67;;;5.21;92.54
31011;BME280;26395;53.412;19.598;2023-02-14T00:39:57;101988.35;;;5.33;92.81
31011;BME280;26395;53.412;19.598;2023-02-14T00:55:00;102004.16;;;5.51;92.49
31011;BME280;26395;53.412;19.598;2023-02-14T01:10:04;102005.65;;;5.53;93.67
31011;BME280;26395;53.412;19.598;2023-02-14T01:25:08;102016.58;;;5.58;93.85
31011;BME280;26395;53.412;19.598;2023-02-14T01:40:12;102018.68;;;5.53;94.24
31011;BME280;26395;53.412;19.598;2023-02-14T01:55:21;102028.86;;;5.50;95.04
31011;BME280;26395;53.412;19.598;2023-02-14T02:10:25;102021.12;;;5.48;95.75
31011;BME280;26395;53.412;19.598;2023-02-14T02:41:42;102023.98;;;5.50;98.77
31011;BME280;26395;53.412;19.598;2023-02-14T02:56:53;102027.09;;;5.46;99.74
31011;BME280;26395;53.412;19.598;2023-02-14T03:12:24;102035.59;;;5.46;99.75
31011;BME280;26395;53.412;19.598;2023-02-14T03:27:45;102039.87;;;5.52;100.00
31011;BME280;26395;53.412;19.598;2023-02-14T03:42:54;102039.15;;;5.66;99.93
31011;BME280;26395;53.412;19.598;2023-02-14T03:58:09;102041.92;;;5.66;100.00
31011;BME280;26395;53.412;19.598;2023-02-14T04:13:13;102049.08;;;5.70;100.00
31011;BME280;26395;53.412;19.598;2023-02-14T04:28:17;102056.24;;;5.77;100.00
31011;BME280;26395;53.412;19.598;2023-02-14T04:43:20;102057.84;;;5.90;100.00
31011;BME280;26395;53.412;19.598;2023-02-14T04:58:23;102061.77;;;5.91;100.00
31011;BME280;26395;53.412;19.598;2023-02-14T05:13:26;102062.37;;;5.94;100.00
31011;BME280;26395;53.412;19.598;2023-02-14T05:28:30;102071.70;;;5.95;100.00
31011;BME280;26395;53.412;19.598;2023-02-14T05:43:33;102083.38;;;5.94;100.00
31011;BME280;26395;53.412;19.598;2023-02-14T05:58:37;102097.52;;;6.02;100.00
31011;BME280;26395;53.412;19.598;2023-02-14T06:13:40;102101.20;;;6.01;100.00
31011;BME280;26395;53.412;19.598;2023-02-14T06:28:44;102116.79;;;6.07;100.00
31011;BME280;26395;53.412;19.598;2023-02-14T06:43:47;102131.66;;;5.99;100.00
31011;BME280;26395;53.412;19.598;2023-02-14T06:58:50;102141.74;;;5.99;100.00
31011;BME280;26395;53.412;19.598;2023-02-14T07:13:54;102162.08;;;6.17;100.00
31011;BME280;26395;53.412;19.598;2023-02-14T07:28:57;102184.61;;;6.18;100.00
31011;BME280;26395;53.412;19.598;2023-02-14T07:44:00;102189.87;;;6.26;100.00
31011;BME280;26395;53.412;19.598;2023-02-14T07:59:03;102201.37;;;6.33;99.91
31011;BME280;26395;53.412;19.598;2023-02-14T08:14:07;102208.16;;;6.42;99.83
31011;BME280;26395;53.412;19.598;2023-02-14T08:29:10;102215.83;;;6.59;99.39
31011;BME280;26395;53.412;19.598;2023-02-14T08:44:13;102221.06;;;6.59;99.09
31011;BME280;26395;53.412;19.598;2023-02-14T08:59:18;102225.46;;;6.71;99.54
31011;BME280;26395;53.412;19.598;2023-02-14T09:14:22;102223.36;;;6.83;98.93
31011;BME280;26395;53.412;19.598;2023-02-14T09:29:27;102222.92;;;7.19;97.96
31011;BME280;26395;53.412;19.598;2023-02-14T09:44:51;102223.85;;;7.42;97.10
31011;BME280;26395;53.412;19.598;2023-02-14T10:15:18;102236.81;;;7.60;94.27
31011;BME280;26395;53.412;19.598;2023-02-14T10:30:23;102229.63;;;7.69;93.35
31011;BME280;26395;53.412;19.598;2023-02-14T10:45:36;102225.38;;;8.13;92.07
31011;BME280;26395;53.412;19.598;2023-02-14T11:01:12;102231.86;;;8.42;91.56
31011;BME280;26395;53.412;19.598;2023-02-14T11:16:31;102226.52;;;8.51;90.23
31011;BME280;26395;53.412;19.598;2023-02-14T11:31:37;102223.67;;;8.74;88.22
31011;BME280;26395;53.412;19.598;2023-02-14T11:46:41;102210.09;;;9.39;85.74
31011;BME280;26395;53.412;19.598;2023-02-14T12:01:57;102194.10;;;10.28;83.93
31011;BME280;26395;53.412;19.598;2023-02-14T12:17:40;102182.30;;;11.41;79.56
31011;BME280;26395;53.412;19.598;2023-02-14T12:32:53;102172.32;;;11.46;78.36
31011;BME280;26395;53.412;19.598;2023-02-14T12:48:14;102165.28;;;13.48;74.84
31011;BME280;26395;53.412;19.598;2023-02-14T13:19:34;102147.38;;;13.70;68.86
31011;BME280;26395;53.412;19.598;2023-02-14T13:34:45;102148.42;;;15.14;68.26
31011;BME280;26395;53.412;19.598;2023-02-14T13:50:02;102140.23;;;17.32;63.57
31011;BME280;26395;53.412;19.598;2023-02-14T14:20:41;102124.23;;;22.83;53.64
31011;BME280;26395;53.412;19.598;2023-02-14T14:42:42;102122.83;;;21.19;50.84
31011;BME280;26395;53.412;19.598;2023-02-14T14:57:51;102121.55;;;21.20;53.03
31011;BME280;26395;53.412;19.598;2023-02-14T15:12:58;102124.55;;;17.09;55.64
31011;BME280;26395;53.412;19.598;2023-02-14T15:28:27;102122.02;;;15.70;58.25
31011;BME280;26395;53.412;19.598;2023-02-14T15:43:35;102117.04;;;13.98;60.72
31011;BME280;26395;53.412;19.598;2023-02-14T15:58:39;102122.13;;;12.59;62.99
31011;BME280;26395;53.412;19.598;2023-02-14T16:13:46;102128.38;;;11.14;65.09
31011;BME280;26395;53.412;19.598;2023-02-14T16:28:49;102141.04;;;9.83;67.38
31011;BME280;26395;53.412;19.598;2023-02-14T16:43:54;102152.16;;;8.98;69.27
31011;BME280;26395;53.412;19.598;2023-02-14T16:58:59;102160.86;;;8.54;70.67
31011;BME280;26395;53.412;19.598;2023-02-14T17:14:03;102166.44;;;8.09;72.32
31011;BME280;26395;53.412;19.598;2023-02-14T17:29:07;102168.36;;;7.91;74.01
31011;BME280;26395;53.412;19.598;2023-02-14T17:44:11;102160.15;;;7.95;75.17
31011;BME280;26395;53.412;19.598;2023-02-14T17:59:16;102158.65;;;7.98;76.21
31011;BME280;26395;53.412;19.598;2023-02-14T18:14:20;102159.57;;;7.85;77.88
31011;BME280;26395;53.412;19.598;2023-02-14T18:29:24;102163.29;;;7.76;78.67
31011;BME280;26395;53.412;19.598;2023-02-14T18:44:27;102162.10;;;7.68;79.37
31011;BME280;26395;53.412;19.598;2023-02-14T18:59:31;102161.63;;;7.75;80.54
31011;BME280;26395;53.412;19.598;2023-02-14T19:14:35;102155.58;;;7.74;81.09
31011;BME280;26395;53.412;19.598;2023-02-14T19:29:40;102146.59;;;7.72;80.27
31011;BME280;26395;53.412;19.598;2023-02-14T19:44:44;102149.45;;;7.36;79.97
31011;BME280;26395;53.412;19.598;2023-02-14T19:59:51;102147.55;;;7.03;80.24
31011;BME280;26395;53.412;19.598;2023-02-14T20:14:56;102143.95;;;6.61;80.37
31011;BME280;26395;53.412;19.598;2023-02-14T20:30:00;102149.14;;;6.44;80.54
31011;BME280;26395;53.412;19.598;2023-02-14T20:45:08;102148.21;;;6.38;81.56
31011;BME280;26395;53.412;19.598;2023-02-14T21:00:12;102145.45;;;6.59;83.02
31011;BME280;26395;53.412;19.598;2023-02-14T21:15:15;102145.08;;;6.75;83.01
31011;BME280;26395;53.412;19.598;2023-02-14T21:30:19;102138.00;;;6.82;83.72
31011;BME280;26395;53.412;19.598;2023-02-14T21:45:23;102140.05;;;6.80;83.53
31011;BME280;26395;53.412;19.598;2023-02-14T22:00:45;102139.45;;;6.73;83.34
31011;BME280;26395;53.412;19.598;2023-02-14T22:15:50;102131.30;;;6.44;84.34
31011;BME280;26395;53.412;19.598;2023-02-14T22:30:58;102122.75;;;6.39;84.97
31011;BME280;26395;53.412;19.598;2023-02-14T22:46:03;102135.02;;;6.37;85.10
31011;BME280;26395;53.412;19.598;2023-02-14T23:01:17;102135.33;;;6.34;85.27
31011;BME280;26395;53.412;19.598;2023-02-14T23:16:21;102125.52;;;6.14;85.47
31011;BME280;26395;53.412;19.598;2023-02-14T23:31:43;102125.65;;;6.11;86.14
31011;BME280;26395;53.412;19.598;2023-02-14T23:46:47;102127.90;;;6.11;86.36
